createdAt,value
2023-02-13T00:01:00.077Z,8.26
2023-02-13T00:03:26.798Z,8.25
2023-02-13T00:05:53.422Z,7.95
2023-02-13T00:08:19.965Z,8.15
2023-02-13T00:10:48.297Z,8.05
2023-02-13T00:13:17.393Z,8.24
2023-02-13T00:15:46.059Z,8.12
2023-02-13T00:18:12.647Z,8.23
2023-02-13T00:20:39.244Z,8.15
2023-02-13T00:23:08.197Z,8.14
2023-02-13T00:25:34.751Z,8.23
2023-02-13T00:28:01.450Z,8.20
2023-02-13T00:30:28.105Z,8.20
2023-02-13T00:32:54.676Z,8.06
2023-02-13T00:35:21.245Z,8.22
2023-02-13T00:37:47.854Z,8.09
2023-02-13T00:40:17.130Z,8.04
2023-02-13T00:42:46.111Z,8.17
2023-02-13T00:45:12.695Z,8.19
2023-02-13T00:47:41.714Z,8.20
2023-02-13T00:50:08.583Z,8.14
2023-02-13T00:52:35.217Z,8.19
2023-02-13T00:55:03.842Z,8.20
2023-02-13T00:57:32.779Z,8.18
2023-02-13T01:00:01.726Z,8.18
2023-02-13T01:02:28.310Z,8.23
2023-02-13T01:04:54.881Z,8.11
2023-02-13T01:07:21.450Z,8.17
2023-02-13T01:09:50.408Z,8.22
2023-02-13T01:12:16.975Z,8.21
2023-02-13T01:14:43.512Z,8.19
2023-02-13T01:17:10.072Z,8.21
2023-02-13T01:19:36.665Z,8.21
2023-02-13T01:22:03.209Z,7.84
2023-02-13T01:24:33.275Z,8.04
2023-02-13T01:27:02.499Z,8.02
2023-02-13T01:29:29.795Z,8.06
2023-02-13T01:31:58.817Z,7.82
2023-02-13T01:34:25.575Z,8.03
2023-02-13T01:36:52.165Z,8.11
2023-02-13T01:39:18.830Z,8.13
2023-02-13T01:41:45.441Z,8.11
2023-02-13T01:44:53.638Z,8.11
2023-02-13T01:47:29.302Z,8.09
2023-02-13T01:50:08.331Z,8.05
2023-02-13T01:52:43.983Z,8.05
2023-02-13T01:55:12.009Z,7.91
2023-02-13T01:57:42.365Z,7.92
2023-02-13T02:00:12.154Z,8.01
2023-02-13T02:02:46.771Z,8.02
2023-02-13T02:05:17.095Z,7.86
2023-02-13T02:07:47.002Z,7.91
2023-02-13T02:10:17.318Z,7.93
2023-02-13T02:12:51.843Z,7.75
2023-02-13T02:15:21.439Z,7.59
2023-02-13T02:17:48.025Z,7.95
2023-02-13T02:20:57.358Z,7.94
2023-02-13T02:23:52.746Z,7.86
2023-02-13T02:26:34.570Z,7.93
2023-02-13T02:29:38.595Z,7.91
2023-02-13T02:32:32.239Z,7.80
2023-02-13T02:35:33.500Z,7.57
2023-02-13T02:38:06.027Z,7.90
2023-02-13T02:40:45.227Z,7.75
2023-02-13T02:43:32.169Z,7.85
2023-02-13T02:46:31.940Z,7.72
2023-02-13T02:49:34.861Z,7.83
2023-02-13T02:52:07.884Z,7.83
2023-02-13T02:55:02.906Z,7.83
2023-02-13T02:57:54.191Z,7.74
2023-02-13T03:00:42.773Z,7.84
2023-02-13T03:03:42.126Z,7.84
2023-02-13T03:06:15.486Z,7.71
2023-02-13T03:09:04.345Z,7.85
2023-02-13T03:11:50.122Z,7.87
2023-02-13T03:14:21.135Z,7.42
2023-02-13T03:17:07.891Z,7.71
2023-02-13T03:20:20.197Z,7.75
2023-02-13T03:23:14.036Z,7.51
2023-02-13T03:26:18.282Z,7.86
2023-02-13T03:29:10.867Z,7.82
2023-02-13T03:32:01.659Z,7.80
2023-02-13T03:34:55.048Z,7.70
2023-02-13T03:37:49.339Z,7.77
2023-02-13T03:40:37.009Z,7.61
2023-02-13T03:43:06.741Z,7.24
2023-02-13T03:45:54.057Z,7.67
2023-02-13T03:48:44.920Z,7.58
2023-02-13T03:51:18.943Z,7.49
2023-02-13T03:53:55.297Z,7.44
2023-02-13T03:56:41.801Z,7.40
2023-02-13T03:59:16.467Z,7.26
2023-02-13T04:02:22.063Z,7.20
2023-02-13T04:04:54.454Z,7.13
2023-02-13T04:07:33.305Z,7.05
2023-02-13T04:10:13.274Z,7.00
2023-02-13T04:12:42.769Z,6.93
2023-02-13T04:15:17.389Z,6.87
2023-02-13T04:17:50.244Z,6.82
2023-02-13T04:20:19.410Z,6.59
2023-02-13T04:22:48.177Z,6.71
2023-02-13T04:25:18.766Z,6.55
2023-02-13T04:27:45.540Z,6.48
2023-02-13T04:30:12.781Z,6.56
2023-02-13T04:32:39.382Z,6.50
2023-02-13T04:35:06.454Z,6.45
2023-02-13T04:37:33.014Z,6.39
2023-02-13T04:39:59.667Z,6.37
2023-02-13T04:42:28.678Z,6.29
2023-02-13T04:44:57.552Z,6.14
2023-02-13T04:47:24.152Z,6.19
2023-02-13T04:49:53.692Z,6.09
2023-02-13T04:52:22.647Z,5.98
2023-02-13T04:54:51.681Z,5.96
2023-02-13T04:57:18.334Z,5.62
2023-02-13T04:59:44.949Z,5.85
2023-02-13T05:02:11.513Z,5.98
2023-02-13T05:04:38.159Z,5.89
2023-02-13T05:07:04.723Z,5.84
2023-02-13T05:09:31.320Z,5.85
2023-02-13T05:12:00.131Z,5.79
2023-02-13T05:14:26.802Z,5.73
2023-02-13T05:16:55.617Z,5.80
2023-02-13T05:19:24.375Z,5.23
2023-02-13T05:22:09.575Z,5.70
2023-02-13T05:24:36.133Z,5.53
2023-02-13T05:27:02.752Z,5.59
2023-02-13T05:29:29.332Z,5.59
2023-02-13T05:31:58.386Z,5.58
2023-02-13T05:34:26.641Z,5.44
2023-02-13T05:36:53.749Z,5.38
2023-02-13T05:39:20.768Z,5.46
2023-02-13T05:41:48.391Z,5.46
2023-02-13T05:44:15.614Z,5.40
2023-02-13T05:46:43.232Z,5.36
2023-02-13T05:49:14.051Z,4.81
2023-02-13T05:51:43.353Z,5.28
2023-02-13T05:54:09.924Z,5.25
2023-02-13T05:56:36.772Z,5.23
2023-02-13T05:59:04.045Z,4.68
2023-02-13T06:01:33.039Z,5.07
2023-02-13T06:04:03.886Z,5.14
2023-02-13T06:06:32.921Z,5.08
2023-02-13T06:09:01.699Z,4.91
2023-02-13T06:11:30.597Z,5.03
2023-02-13T06:13:59.394Z,5.01
2023-02-13T06:16:30.436Z,4.98
2023-02-13T06:18:59.525Z,4.96
2023-02-13T06:21:26.575Z,4.90
2023-02-13T06:23:53.197Z,4.90
2023-02-13T06:26:19.916Z,4.76
2023-02-13T06:28:46.543Z,4.87
2023-02-13T06:31:13.303Z,4.73
2023-02-13T06:33:40.059Z,4.80
2023-02-13T06:36:07.127Z,4.68
2023-02-13T06:38:33.723Z,4.73
2023-02-13T06:41:07.261Z,4.60
2023-02-13T06:43:36.161Z,4.51
2023-02-13T06:46:06.708Z,4.35
2023-02-13T06:48:35.835Z,3.81
2023-02-13T06:51:02.473Z,4.53
2023-02-13T06:53:29.820Z,4.64
2023-02-13T06:56:03.944Z,4.38
2023-02-13T06:58:30.515Z,4.53
2023-02-13T07:00:57.368Z,4.42
2023-02-13T07:03:24.227Z,4.54
2023-02-13T07:05:52.135Z,4.53
2023-02-13T07:08:19.201Z,4.51
2023-02-13T07:10:45.826Z,4.49
2023-02-13T07:13:12.427Z,4.49
2023-02-13T07:15:39.053Z,4.41
2023-02-13T07:18:06.664Z,4.46
2023-02-13T07:20:34.010Z,4.46
2023-02-13T07:23:04.332Z,4.45
2023-02-13T07:25:31.687Z,4.48
2023-02-13T07:28:05.096Z,4.45
2023-02-13T07:30:33.065Z,3.89
2023-02-13T07:33:04.017Z,4.55
2023-02-13T07:35:31.507Z,4.60
2023-02-13T07:37:59.322Z,4.58
2023-02-13T07:40:28.355Z,4.60
2023-02-13T07:42:56.149Z,4.71
2023-02-13T07:45:23.008Z,4.79
2023-02-13T07:47:49.565Z,4.69
2023-02-13T07:50:16.146Z,4.76
2023-02-13T07:52:42.755Z,4.78
2023-02-13T07:55:11.576Z,4.92
2023-02-13T07:57:38.301Z,4.86
2023-02-13T08:00:07.756Z,4.99
2023-02-13T08:02:39.106Z,4.98
2023-02-13T08:05:08.550Z,5.08
2023-02-13T08:07:35.198Z,5.10
2023-02-13T08:10:20.399Z,4.63
2023-02-13T08:12:47.373Z,5.20
2023-02-13T08:15:17.990Z,5.26
2023-02-13T08:17:44.641Z,5.27
2023-02-13T08:20:12.011Z,5.30
2023-02-13T08:22:39.583Z,5.41
2023-02-13T08:25:09.726Z,5.29
2023-02-13T08:27:36.352Z,5.50
2023-02-13T08:30:06.717Z,5.56
2023-02-13T08:32:44.915Z,5.52
2023-02-13T08:35:19.619Z,5.63
2023-02-13T08:37:47.620Z,5.72
2023-02-13T08:40:14.784Z,5.76
2023-02-13T08:42:41.660Z,5.77
2023-02-13T08:45:10.562Z,5.62
2023-02-13T08:47:40.543Z,5.02
2023-02-13T08:50:08.068Z,5.98
2023-02-13T08:52:34.868Z,5.88
2023-02-13T08:55:03.492Z,6.01
2023-02-13T08:57:31.237Z,6.11
2023-02-13T09:00:00.005Z,6.12
2023-02-13T09:02:26.744Z,6.25
2023-02-13T09:04:55.896Z,6.31
2023-02-13T09:07:25.556Z,6.37
2023-02-13T09:09:52.373Z,6.24
2023-02-13T09:12:19.011Z,6.43
2023-02-13T09:14:48.090Z,6.54
2023-02-13T09:17:18.428Z,6.62
2023-02-13T09:19:46.671Z,6.19
2023-02-13T09:22:13.314Z,6.75
2023-02-13T09:24:44.824Z,7.19
2023-02-13T09:27:11.445Z,7.71
2023-02-13T09:29:38.075Z,8.37
2023-02-13T09:32:06.263Z,8.90
2023-02-13T09:34:35.230Z,9.08
2023-02-13T09:37:01.807Z,9.36
2023-02-13T09:39:28.370Z,9.51
2023-02-13T09:41:55.972Z,9.83
2023-02-13T09:44:43.542Z,10.04
2023-02-13T09:47:22.097Z,10.18
2023-02-13T09:50:16.583Z,10.27
2023-02-13T09:52:46.131Z,10.37
2023-02-13T09:55:17.614Z,10.39
2023-02-13T09:57:56.644Z,10.49
2023-02-13T10:00:32.815Z,10.53
2023-02-13T10:02:59.360Z,10.66
2023-02-13T10:05:38.140Z,10.67
2023-02-13T10:08:10.618Z,10.75
2023-02-13T10:11:21.939Z,10.86
2023-02-13T10:14:12.293Z,10.64
2023-02-13T10:16:45.112Z,10.88
2023-02-13T10:20:03.402Z,11.01
2023-02-13T10:22:33.956Z,10.95
2023-02-13T10:25:13.163Z,10.90
2023-02-13T10:27:47.223Z,11.00
2023-02-13T10:30:52.166Z,11.14
2023-02-13T10:33:26.798Z,11.05
2023-02-13T10:36:01.103Z,11.06
2023-02-13T10:38:31.767Z,11.06
2023-02-13T10:41:04.660Z,11.12
2023-02-13T10:43:46.927Z,11.00
2023-02-13T10:46:22.620Z,11.23
2023-02-13T10:48:52.163Z,11.34
2023-02-13T10:51:35.441Z,11.45
2023-02-13T10:54:30.172Z,11.54
2023-02-13T10:57:34.668Z,11.69
2023-02-13T11:00:31.404Z,11.83
2023-02-13T11:02:59.804Z,11.97
2023-02-13T11:05:37.905Z,11.90
2023-02-13T11:08:30.078Z,12.05
2023-02-13T11:10:56.594Z,12.27
2023-02-13T11:13:26.229Z,12.27
2023-02-13T11:16:03.007Z,12.43
2023-02-13T11:18:34.320Z,12.18
2023-02-13T11:21:16.632Z,12.13
2023-02-13T11:23:50.271Z,12.01
2023-02-13T11:26:32.907Z,11.97
2023-02-13T11:29:25.385Z,12.49
2023-02-13T11:32:05.597Z,12.64
2023-02-13T11:34:34.567Z,12.79
2023-02-13T11:37:15.873Z,12.83
2023-02-13T11:39:44.616Z,12.89
2023-02-13T11:42:15.440Z,13.09
2023-02-13T11:44:48.457Z,12.87
2023-02-13T11:47:16.235Z,13.32
2023-02-13T11:49:47.548Z,13.40
2023-02-13T11:52:32.616Z,13.46
2023-02-13T11:55:05.059Z,13.61
2023-02-13T11:57:35.286Z,13.60
2023-02-13T12:00:29.894Z,13.59
2023-02-13T12:02:56.729Z,13.76
2023-02-13T12:05:26.710Z,13.68
2023-02-13T12:07:57.657Z,13.58
2023-02-13T12:10:29.101Z,13.56
2023-02-13T12:12:59.313Z,13.67
2023-02-13T12:15:38.245Z,13.61
2023-02-13T12:18:10.941Z,13.80
2023-02-13T12:20:53.764Z,13.44
2023-02-13T12:24:00.549Z,13.61
2023-02-13T12:26:39.364Z,13.58
2023-02-13T12:29:36.171Z,13.66
2023-02-13T12:32:21.394Z,13.65
2023-02-13T12:34:53.904Z,13.45
2023-02-13T12:37:46.712Z,13.07
2023-02-13T12:40:27.300Z,13.49
2023-02-13T12:43:12.352Z,13.06
2023-02-13T12:46:04.872Z,13.57
2023-02-13T12:49:18.538Z,13.82
2023-02-13T12:52:09.576Z,13.78
2023-02-13T12:55:12.944Z,13.73
2023-02-13T12:57:57.129Z,13.86
2023-02-13T13:00:50.810Z,13.72
2023-02-13T13:03:20.184Z,13.61
2023-02-13T13:05:50.725Z,13.65
2023-02-13T13:08:29.899Z,13.74
2023-02-13T13:11:02.603Z,13.93
2023-02-13T13:13:48.491Z,13.91
2023-02-13T13:16:27.021Z,13.97
2023-02-13T13:19:00.786Z,14.12
2023-02-13T13:22:12.930Z,14.10
2023-02-13T13:24:55.054Z,14.34
2023-02-13T13:27:49.985Z,14.27
2023-02-13T13:30:22.747Z,14.42
2023-02-13T13:32:55.591Z,14.50
2023-02-13T13:35:24.970Z,14.25
2023-02-13T13:38:14.485Z,14.07
2023-02-13T13:40:53.668Z,14.08
2023-02-13T13:43:59.766Z,14.34
2023-02-13T13:47:05.811Z,14.27
2023-02-13T13:49:55.658Z,14.25
2023-02-13T13:52:22.593Z,14.20
2023-02-13T13:54:52.020Z,14.11
2023-02-13T13:57:20.559Z,14.10
2023-02-13T13:59:55.544Z,14.08
2023-02-13T14:02:22.124Z,14.00
2023-02-13T14:05:06.428Z,13.85
2023-02-13T14:07:38.571Z,13.22
2023-02-13T14:10:06.579Z,13.77
2023-02-13T14:12:33.245Z,13.70
2023-02-13T14:15:00.221Z,13.35
2023-02-13T14:17:45.321Z,13.56
2023-02-13T14:20:37.750Z,13.56
2023-02-13T14:23:23.965Z,13.57
2023-02-13T14:26:09.982Z,13.26
2023-02-13T14:28:37.098Z,13.47
2023-02-13T14:31:22.416Z,13.55
2023-02-13T14:34:17.000Z,13.52
2023-02-13T14:37:07.084Z,12.78
2023-02-13T14:39:37.657Z,13.37
2023-02-13T14:42:30.047Z,13.37
2023-02-13T14:44:59.672Z,13.34
2023-02-13T14:47:36.441Z,13.41
2023-02-13T14:50:14.436Z,13.05
2023-02-13T14:52:47.371Z,13.19
2023-02-13T14:55:35.036Z,13.30
2023-02-13T14:58:12.742Z,13.25
2023-02-13T15:00:51.446Z,13.32
2023-02-13T15:03:38.709Z,13.22
2023-02-13T15:06:16.649Z,12.92
2023-02-13T15:08:49.445Z,13.21
2023-02-13T15:11:36.768Z,13.13
2023-02-13T15:14:35.763Z,13.14
2023-02-13T15:17:19.622Z,13.11
2023-02-13T15:19:49.108Z,13.07
2023-02-13T15:22:25.755Z,13.07
2023-02-13T15:24:52.528Z,12.96
2023-02-13T15:27:39.294Z,13.02
2023-02-13T15:30:15.224Z,12.99
2023-02-13T15:32:54.094Z,12.90
2023-02-13T15:35:33.044Z,12.60
2023-02-13T15:38:02.863Z,12.81
2023-02-13T15:40:39.712Z,12.86
2023-02-13T15:43:23.328Z,12.79
2023-02-13T15:45:49.983Z,12.68
2023-02-13T15:48:17.736Z,12.74
2023-02-13T15:50:45.275Z,12.67
2023-02-13T15:53:16.249Z,12.66
2023-02-13T15:55:55.091Z,12.61
2023-02-13T15:58:33.269Z,12.57
2023-02-13T16:01:03.807Z,12.53
2023-02-13T16:03:34.594Z,12.35
2023-02-13T16:06:01.783Z,12.28
2023-02-13T16:08:33.680Z,12.40
2023-02-13T16:11:17.062Z,12.33
2023-02-13T16:14:16.509Z,12.24
2023-02-13T16:16:43.476Z,12.19
2023-02-13T16:19:24.136Z,12.13
2023-02-13T16:21:55.973Z,12.07
2023-02-13T16:24:24.533Z,12.00
2023-02-13T16:26:51.710Z,11.95
2023-02-13T16:29:22.167Z,11.89
2023-02-13T16:31:50.416Z,11.49
2023-02-13T16:34:31.571Z,11.74
2023-02-13T16:36:58.203Z,11.61
2023-02-13T16:39:35.563Z,11.60
2023-02-13T16:42:14.162Z,11.51
2023-02-13T16:44:42.987Z,11.42
2023-02-13T16:47:28.637Z,11.33
2023-02-13T16:49:57.293Z,11.25
2023-02-13T16:52:26.773Z,11.16
2023-02-13T16:54:57.006Z,11.09
2023-02-13T16:57:30.845Z,11.01
2023-02-13T17:00:04.002Z,10.81
2023-02-13T17:02:38.778Z,10.46
2023-02-13T17:05:25.895Z,10.78
2023-02-13T17:07:56.922Z,10.58
2023-02-13T17:10:33.948Z,10.60
2023-02-13T17:13:09.324Z,10.56
2023-02-13T17:15:35.921Z,10.50
2023-02-13T17:18:02.608Z,10.43
2023-02-13T17:20:34.026Z,10.36
2023-02-13T17:23:04.129Z,10.28
2023-02-13T17:25:38.120Z,10.14
2023-02-13T17:28:18.688Z,10.15
2023-02-13T17:30:46.319Z,10.07
2023-02-13T17:33:23.601Z,10.03
2023-02-13T17:35:50.839Z,10.00
2023-02-13T17:38:17.557Z,10.00
2023-02-13T17:40:45.494Z,10.03
2023-02-13T17:43:13.849Z,9.97
2023-02-13T17:45:40.882Z,9.79
2023-02-13T17:48:07.629Z,9.73
2023-02-13T17:50:34.891Z,9.82
2023-02-13T17:53:18.422Z,9.77
2023-02-13T17:55:45.013Z,9.68
2023-02-13T17:58:11.532Z,9.63
2023-02-13T18:00:38.237Z,9.33
2023-02-13T18:03:04.868Z,9.52
2023-02-13T18:05:33.212Z,9.46
2023-02-13T18:08:03.816Z,9.40
2023-02-13T18:10:33.419Z,9.37
2023-02-13T18:13:06.096Z,8.94
2023-02-13T18:15:42.629Z,9.22
2023-02-13T18:18:12.050Z,9.13
2023-02-13T18:20:41.576Z,8.96
2023-02-13T18:23:11.409Z,8.94
2023-02-13T18:25:42.830Z,8.92
2023-02-13T18:28:09.477Z,8.92
2023-02-13T18:30:36.015Z,8.95
2023-02-13T18:33:05.699Z,8.72
2023-02-13T18:35:33.401Z,8.62
2023-02-13T18:37:59.998Z,8.69
2023-02-13T18:40:26.898Z,8.62
2023-02-13T18:42:53.735Z,8.48
2023-02-13T18:45:20.425Z,8.42
2023-02-13T18:47:46.989Z,8.40
2023-02-13T18:50:15.747Z,8.29
2023-02-13T18:52:42.330Z,8.23
2023-02-13T18:55:11.193Z,8.20
2023-02-13T18:57:37.830Z,7.38
2023-02-13T19:00:05.559Z,8.03
2023-02-13T19:02:33.534Z,8.03
2023-02-13T19:05:02.757Z,8.03
2023-02-13T19:07:31.732Z,7.86
2023-02-13T19:09:58.361Z,7.90
2023-02-13T19:12:27.433Z,7.84
2023-02-13T19:14:54.032Z,7.77
2023-02-13T19:17:20.630Z,7.62
2023-02-13T19:19:50.428Z,7.58
2023-02-13T19:22:17.401Z,7.55
2023-02-13T19:24:44.143Z,7.51
2023-02-13T19:27:11.396Z,7.53
2023-02-13T19:29:38.012Z,7.49
2023-02-13T19:32:07.643Z,7.33
2023-02-13T19:34:34.679Z,7.33
2023-02-13T19:37:04.285Z,7.35
2023-02-13T19:39:30.864Z,7.26
2023-02-13T19:41:57.466Z,7.23
2023-02-13T19:44:26.543Z,7.18
2023-02-13T19:46:53.359Z,7.09
2023-02-13T19:49:22.334Z,6.77
2023-02-13T19:51:48.985Z,6.89
2023-02-13T19:54:15.619Z,7.03
2023-02-13T19:56:42.343Z,6.88
2023-02-13T19:59:13.345Z,6.74
2023-02-13T20:01:43.827Z,6.74
2023-02-13T20:04:16.157Z,6.83
2023-02-13T20:06:42.830Z,6.76
2023-02-13T20:09:12.853Z,6.78
2023-02-13T20:11:41.467Z,6.74
2023-02-13T20:14:11.692Z,6.71
2023-02-13T20:16:38.559Z,6.53
2023-02-13T20:19:09.556Z,6.56
2023-02-13T20:21:36.872Z,6.40
2023-02-13T20:24:07.874Z,6.42
2023-02-13T20:26:37.157Z,6.45
2023-02-13T20:29:03.819Z,6.44
2023-02-13T20:31:30.749Z,6.38
2023-02-13T20:33:58.288Z,6.31
2023-02-13T20:36:27.549Z,6.35
2023-02-13T20:38:57.394Z,6.22
2023-02-13T20:41:28.795Z,6.28
2023-02-13T20:44:03.824Z,6.10
2023-02-13T20:46:32.219Z,5.47
2023-02-13T20:48:58.824Z,6.14
2023-02-13T20:51:25.674Z,5.99
2023-02-13T20:53:52.308Z,6.01
2023-02-13T20:56:21.832Z,5.93
2023-02-13T20:58:50.632Z,5.96
2023-02-13T21:01:28.149Z,5.93
2023-02-13T21:03:56.436Z,5.87
2023-02-13T21:06:31.923Z,5.81
2023-02-13T21:08:58.898Z,5.75
2023-02-13T21:11:31.299Z,5.71
2023-02-13T21:13:58.320Z,5.76
2023-02-13T21:16:29.597Z,5.62
2023-02-13T21:18:58.863Z,5.76
2023-02-13T21:21:29.173Z,5.73
2023-02-13T21:23:57.809Z,5.71
2023-02-13T21:26:25.662Z,5.58
2023-02-13T21:28:52.797Z,5.64
2023-02-13T21:31:23.857Z,5.54
2023-02-13T21:33:52.985Z,5.62
2023-02-13T21:36:21.788Z,5.58
2023-02-13T21:38:50.818Z,5.56
2023-02-13T21:41:18.743Z,5.48
2023-02-13T21:43:48.352Z,5.48
2023-02-13T21:46:19.787Z,5.46
2023-02-13T21:48:47.747Z,5.41
2023-02-13T21:51:16.817Z,5.42
2023-02-13T21:53:48.327Z,5.39
2023-02-13T21:56:18.362Z,5.17
2023-02-13T21:58:45.750Z,5.29
2023-02-13T22:01:30.653Z,5.25
2023-02-13T22:04:01.158Z,5.11
2023-02-13T22:06:30.244Z,5.08
2023-02-13T22:09:11.330Z,5.15
2023-02-13T22:11:38.468Z,4.95
2023-02-13T22:14:07.880Z,4.91
2023-02-13T22:16:37.611Z,5.01
2023-02-13T22:19:09.469Z,5.04
2023-02-13T22:21:36.689Z,4.98
2023-02-13T22:24:03.496Z,4.98
2023-02-13T22:26:38.174Z,4.88
2023-02-13T22:29:06.736Z,4.89
2023-02-13T22:31:34.182Z,4.86
2023-02-13T22:34:06.984Z,4.75
2023-02-13T22:36:35.260Z,4.74
2023-02-13T22:39:01.892Z,3.45
2023-02-13T22:41:30.776Z,4.74
2023-02-13T22:43:57.591Z,4.73
2023-02-13T22:46:29.998Z,4.72
2023-02-13T22:48:57.362Z,4.47
2023-02-13T22:51:27.654Z,4.65
2023-02-13T22:53:55.838Z,4.63
2023-02-13T22:56:23.375Z,4.58
2023-02-13T22:58:50.139Z,4.58
2023-02-13T23:01:23.128Z,4.55
2023-02-13T23:03:50.823Z,4.53
2023-02-13T23:06:17.987Z,4.52
2023-02-13T23:08:45.461Z,4.48
2023-02-13T23:11:35.303Z,4.45
2023-02-13T23:14:04.640Z,4.43
2023-02-13T23:16:50.347Z,4.40
2023-02-13T23:19:17.006Z,4.35
2023-02-13T23:21:45.822Z,4.34
2023-02-13T23:24:12.438Z,4.17
2023-02-13T23:26:39.168Z,4.31
2023-02-13T23:29:08.290Z,4.15
2023-02-13T23:31:34.973Z,4.20
2023-02-13T23:34:01.762Z,4.20
2023-02-13T23:36:28.694Z,4.10
2023-02-13T23:38:55.301Z,4.18
2023-02-13T23:41:21.901Z,4.12
2023-02-13T23:43:48.463Z,3.91
2023-02-13T23:46:15.036Z,4.05
2023-02-13T23:48:41.584Z,3.88
2023-02-13T23:51:08.119Z,3.99
2023-02-13T23:53:38.133Z,3.86
2023-02-13T23:56:05.376Z,3.88
2023-02-13T23:58:31.966Z,3.93
